LIMJ/GOA METAR and TAF weather

Enter ICAO airport designator
Station Type Date Time Source
LIMJ METAR 2020/02/25 10:50 UTC NOAA

LIMJ 251050Z 11014KT 9999 -RA BKN012 BKN035 14/12 Q1011


Station Type Date Time Source
LIMJ Decoded METAR 2020/02/25 10:50 UTC NOAA

Genova / Sestri, Italy (LIMJ) 44-25N 008-51E 3M
Feb 25, 2020 - 05:50 AM EST / 2020.02.25 1050 UTC
Wind: from the ESE (110 degrees) at 16 MPH (14 KT):0
Visibility: greater than 7 mile(s):0
Sky conditions: mostly cloudy
Weather: light rain
Temperature: 57 F (14 C)
Dew Point: 53 F (12 C)
Relative Humidity: 87%
Pressure (altimeter): 29.85 in. Hg (1011 hPa)
ob: LIMJ 251050Z 11014KT 9999 -RA BKN012 BKN035 14/12 Q1011
cycle: 11

Station Type Date Time Source
LIMJ TAF 2020/02/25 12:21 UTC NOAA

TAF LIMJ 251100Z 2512/2612 14010KT 9999 SCT010 BKN030
BECMG 2520/2522 04006KT
BECMG 2609/2611 34015G30KT

Example: see airport list